Time;durP1;ratioP1;P1;durP2;ratioP2;P2;SDS_P1;SDS_P2;PMS_P1;PMS_P2;Temp;Humidity;BMP_temperature;BMP_pressure;BME280_temperature;BME280_humidity;BME280_pressure;Samples;Min_cycle;Max_cycle;Signal;HPM_P1;HPM_P2
2021/05/27 00:00:23;;;;;;;2.53;1.02;;;;;;;;;;4986559;28;20382;-56
2021/05/27 00:02:49;;;;;;;1.15;1.02;;;;;;;;;;4985373;28;20037;-56
2021/05/27 00:05:14;;;;;;;2.85;1.13;;;;;;;;;;4971973;28;20552;-56
2021/05/27 00:07:41;;;;;;;1.20;0.85;;;;;;;;;;4982735;28;20022;-56
2021/05/27 00:10:08;;;;;;;0.88;0.88;;;;;;;;;;4986801;28;20065;-56
2021/05/27 00:12:34;;;;;;;1.23;1.08;;;;;;;;;;4986537;28;20081;-56
2021/05/27 00:15:01;;;;;;;1.10;1.00;;;;;;;;;;5017129;28;20057;-56
2021/05/27 00:17:27;;;;;;;1.73;1.20;;;;;;;;;;4986547;28;20034;-56
2021/05/27 00:19:53;;;;;;;2.08;1.20;;;;;;;;;;4988464;28;20045;-57
2021/05/27 00:22:19;;;;;;;1.02;0.95;;;;;;;;;;4987111;28;20275;-56
2021/05/27 00:24:44;;;;;;;1.30;0.93;;;;;;;;;;4987677;28;20157;-55
2021/05/27 00:27:10;;;;;;;0.90;0.85;;;;;;;;;;4989069;28;20022;-55
2021/05/27 00:29:36;;;;;;;1.60;0.95;;;;;;;;;;5020806;28;20261;-56
2021/05/27 00:32:02;;;;;;;1.20;1.10;;;;;;;;;;4989325;28;20034;-56
2021/05/27 00:34:28;;;;;;;1.48;1.30;;;;;;;;;;5019837;28;20026;-56
2021/05/27 00:36:54;;;;;;;1.33;1.13;;;;;;;;;;4984779;28;20062;-57
2021/05/27 00:39:20;;;;;;;1.75;1.00;;;;;;;;;;4986762;28;20031;-56
2021/05/27 00:41:45;;;;;;;1.00;0.90;;;;;;;;;;4999440;28;20355;-56
2021/05/27 00:44:19;;;;;;;2.55;1.25;;;;;;;;;;5017564;28;20030;-56
2021/05/27 00:46:45;;;;;;;1.90;1.20;;;;;;;;;;4983365;28;20027;-55
2021/05/27 00:49:11;;;;;;;1.33;1.00;;;;;;;;;;5002081;28;20033;-56
2021/05/27 00:51:36;;;;;;;2.22;1.02;;;;;;;;;;4970837;28;20317;-56
2021/05/27 00:54:03;;;;;;;2.08;1.20;;;;;;;;;;4973092;28;21327;-56
2021/05/27 00:56:29;;;;;;;1.92;1.20;;;;;;;;;;4986617;28;20030;-56
2021/05/27 00:58:57;;;;;;;1.52;1.00;;;;;;;;;;4985477;28;20500;-56
2021/05/27 01:01:24;;;;;;;1.25;1.10;;;;;;;;;;4984380;28;20084;-56
2021/05/27 01:03:49;;;;;;;2.25;1.30;;;;;;;;;;5003052;28;20213;-56
2021/05/27 01:06:15;;;;;;;2.15;1.30;;;;;;;;;;4980853;28;20093;-56
2021/05/27 01:08:41;;;;;;;1.50;1.20;;;;;;;;;;4985047;28;20022;-56
2021/05/27 01:11:07;;;;;;;1.52;1.42;;;;;;;;;;5016382;28;20077;-56
2021/05/27 01:13:33;;;;;;;1.63;1.17;;;;;;;;;;4984387;28;20720;-56
2021/05/27 01:16:00;;;;;;;1.15;1.05;;;;;;;;;;4982764;28;20034;-56
2021/05/27 01:18:27;;;;;;;1.35;1.25;;;;;;;;;;4983631;28;20080;-56
2021/05/27 01:20:58;;;;;;;1.88;1.30;;;;;;;;;;5016169;28;20076;-56
2021/05/27 01:23:27;;;;;;;1.75;1.20;;;;;;;;;;5016366;28;20038;-56
2021/05/27 01:25:56;;;;;;;3.00;1.30;;;;;;;;;;4985592;28;20049;-56
2021/05/27 01:28:24;;;;;;;1.35;1.10;;;;;;;;;;4984875;28;20148;-57
2021/05/27 01:30:50;;;;;;;1.63;1.08;;;;;;;;;;4980880;28;20512;-56
2021/05/27 01:33:17;;;;;;;1.17;1.00;;;;;;;;;;4987637;28;20030;-56
2021/05/27 01:35:43;;;;;;;1.10;1.00;;;;;;;;;;4967949;28;20042;-56
2021/05/27 01:38:18;;;;;;;1.10;0.90;;;;;;;;;;4984387;28;20493;-56
2021/05/27 01:40:45;;;;;;;1.25;1.02;;;;;;;;;;4998507;28;20055;-56
2021/05/27 01:43:11;;;;;;;1.00;0.90;;;;;;;;;;4982716;28;20027;-56
2021/05/27 01:45:38;;;;;;;0.93;0.80;;;;;;;;;;4984883;28;20049;-56
2021/05/27 01:48:07;;;;;;;0.80;0.80;;;;;;;;;;4983221;28;20023;-56
2021/05/27 01:50:34;;;;;;;3.47;2.35;;;;;;;;;;5000993;28;20044;-56
2021/05/27 01:53:02;;;;;;;1.55;1.00;;;;;;;;;;4982235;28;20099;-56
2021/05/27 01:55:29;;;;;;;1.67;0.80;;;;;;;;;;5014891;28;20448;-56
2021/05/27 01:57:56;;;;;;;0.80;0.80;;;;;;;;;;4983006;28;20037;-56
2021/05/27 02:00:26;;;;;;;1.23;0.88;;;;;;;;;;4985696;28;20037;-55
2021/05/27 02:02:53;;;;;;;0.98;0.77;;;;;;;;;;4985268;28;20124;-56
2021/05/27 02:05:18;;;;;;;0.70;0.70;;;;;;;;;;4983935;28;20026;-56
2021/05/27 02:07:45;;;;;;;0.73;0.70;;;;;;;;;;4984993;28;20095;-55
2021/05/27 02:10:11;;;;;;;1.77;0.80;;;;;;;;;;5001269;28;20433;-56
2021/05/27 02:12:38;;;;;;;0.68;0.68;;;;;;;;;;4982589;28;20033;-55
2021/05/27 02:15:06;;;;;;;0.70;0.65;;;;;;;;;;4984481;28;20034;-55
2021/05/27 02:17:32;;;;;;;0.93;0.80;;;;;;;;;;5013590;28;20116;-56
2021/05/27 02:19:59;;;;;;;0.68;0.68;;;;;;;;;;4980946;28;20117;-55
2021/05/27 02:22:25;;;;;;;0.93;0.90;;;;;;;;;;4986701;28;20037;-55
2021/05/27 02:24:51;;;;;;;1.15;1.00;;;;;;;;;;4985376;28;20036;-55
2021/05/27 02:27:18;;;;;;;0.73;0.70;;;;;;;;;;4999300;28;20065;-56
2021/05/27 02:29:44;;;;;;;1.15;0.80;;;;;;;;;;5017397;28;20549;-56
2021/05/27 02:32:10;;;;;;;0.80;0.80;;;;;;;;;;4984672;28;20165;-55
2021/05/27 02:34:36;;;;;;;1.15;0.90;;;;;;;;;;4984661;28;20038;-56
2021/05/27 02:37:02;;;;;;;1.10;1.00;;;;;;;;;;5014173;28;20366;-56
2021/05/27 02:39:29;;;;;;;2.67;0.82;;;;;;;;;;4984168;28;20033;-56
2021/05/27 02:41:55;;;;;;;1.25;0.80;;;;;;;;;;4998230;28;20626;-56
2021/05/27 02:44:21;;;;;;;1.10;0.85;;;;;;;;;;5013909;28;20026;-56
2021/05/27 02:46:47;;;;;;;1.77;1.10;;;;;;;;;;4982966;28;20031;-55
2021/05/27 02:49:14;;;;;;;1.60;1.27;;;;;;;;;;4983752;28;20037;-56
2021/05/27 02:51:41;;;;;;;1.55;1.00;;;;;;;;;;4989570;28;20030;-56
2021/05/27 02:54:07;;;;;;;1.23;0.90;;;;;;;;;;4987456;28;20040;-55
2021/05/27 02:56:33;;;;;;;1.90;1.00;;;;;;;;;;4987356;28;20038;-56
2021/05/27 02:58:59;;;;;;;1.45;1.10;;;;;;;;;;4985511;28;20026;-56
2021/05/27 03:01:26;;;;;;;1.13;1.00;;;;;;;;;;4986616;28;20033;-55
2021/05/27 03:03:53;;;;;;;1.52;1.02;;;;;;;;;;4988039;28;20041;-56
2021/05/27 03:06:19;;;;;;;2.13;1.20;;;;;;;;;;4982726;28;20468;-56
2021/05/27 03:08:46;;;;;;;1.42;0.98;;;;;;;;;;5015945;28;20030;-56
2021/05/27 03:11:12;;;;;;;1.30;1.20;;;;;;;;;;4989562;28;20439;-56
2021/05/27 03:13:38;;;;;;;1.25;1.13;;;;;;;;;;4970343;28;20033;-56
2021/05/27 03:16:04;;;;;;;1.75;1.20;;;;;;;;;;4986261;28;20037;-55
2021/05/27 03:18:31;;;;;;;2.30;1.00;;;;;;;;;;4986215;28;20046;-56
2021/05/27 03:21:01;;;;;;;1.30;1.20;;;;;;;;;;4973155;28;20023;-56
2021/05/27 03:23:26;;;;;;;1.60;1.00;;;;;;;;;;4987933;28;20514;-55
2021/05/27 03:25:53;;;;;;;1.75;1.10;;;;;;;;;;4986433;28;20038;-56
2021/05/27 03:28:20;;;;;;;1.60;1.10;;;;;;;;;;4987887;28;20022;-56
2021/05/27 03:30:46;;;;;;;1.13;0.95;;;;;;;;;;4984717;28;20093;-56
2021/05/27 03:33:12;;;;;;;2.35;1.10;;;;;;;;;;4989058;28;20031;-56
2021/05/27 03:35:38;;;;;;;2.10;1.13;;;;;;;;;;4988712;28;20334;-56
2021/05/27 03:38:05;;;;;;;2.55;1.10;;;;;;;;;;4986615;28;20056;-56
2021/05/27 03:40:32;;;;;;;1.45;0.82;;;;;;;;;;4987808;28;20411;-56
2021/05/27 03:42:59;;;;;;;2.53;1.35;;;;;;;;;;4988352;28;20030;-56
2021/05/27 03:45:26;;;;;;;2.72;1.48;;;;;;;;;;5016975;28;20046;-56
2021/05/27 03:47:52;;;;;;;2.10;1.10;;;;;;;;;;4983006;28;20365;-56
2021/05/27 03:50:20;;;;;;;2.10;1.55;;;;;;;;;;4988311;28;20061;-56
2021/05/27 03:52:46;;;;;;;2.38;1.30;;;;;;;;;;4987337;28;20064;-57
2021/05/27 03:55:15;;;;;;;1.88;1.10;;;;;;;;;;5017234;28;20042;-56
2021/05/27 03:57:43;;;;;;;1.90;1.30;;;;;;;;;;4983443;28;20022;-56
2021/05/27 04:02:58;;;;;;;2.65;1.67;;;;;;;;;;4988228;28;20425;-56
2021/05/27 04:08:08;;;;;;;2.70;1.33;;;;;;;;;;4985342;28;20032;-57
2021/05/27 04:10:35;;;;;;;3.40;1.30;;;;;;;;;;4984836;28;20242;-56
2021/05/27 04:13:01;;;;;;;1.77;1.30;;;;;;;;;;4987054;28;20033;-56
2021/05/27 04:15:29;;;;;;;5.65;3.60;;;;;;;;;;5018374;28;20022;-57
2021/05/27 04:17:59;;;;;;;1.83;1.30;;;;;;;;;;4980979;28;20110;-57
2021/05/27 04:20:31;;;;;;;2.53;1.52;;;;;;;;;;4982779;28;20026;-56
2021/05/27 04:22:59;;;;;;;1.77;1.30;;;;;;;;;;4984529;28;21027;-56
2021/05/27 04:25:26;;;;;;;3.63;1.90;;;;;;;;;;5003434;28;20030;-56
2021/05/27 04:27:56;;;;;;;3.45;1.60;;;;;;;;;;5016661;28;20062;-56
2021/05/27 04:30:24;;;;;;;2.03;1.20;;;;;;;;;;4987613;28;20057;-56
2021/05/27 04:33:08;;;;;;;1.52;1.20;;;;;;;;;;4986274;28;20052;-56
2021/05/27 04:35:41;;;;;;;2.40;1.38;;;;;;;;;;5015446;28;20056;-56
2021/05/27 04:38:08;;;;;;;2.00;1.30;;;;;;;;;;4984010;28;20034;-58
2021/05/27 04:40:36;;;;;;;3.67;1.55;;;;;;;;;;5017001;28;20034;-57
2021/05/27 04:43:02;;;;;;;1.88;1.50;;;;;;;;;;5015654;28;20034;-57
2021/05/27 04:45:28;;;;;;;1.27;1.17;;;;;;;;;;5018368;28;20031;-57
2021/05/27 04:47:55;;;;;;;3.30;2.17;;;;;;;;;;4985023;28;20559;-57
2021/05/27 04:50:24;;;;;;;1.70;1.30;;;;;;;;;;4984967;28;20128;-58
2021/05/27 04:52:50;;;;;;;2.25;1.52;;;;;;;;;;4985314;28;20126;-58
2021/05/27 04:55:17;;;;;;;2.05;1.23;;;;;;;;;;4987410;28;20030;-58
2021/05/27 04:57:43;;;;;;;2.03;1.30;;;;;;;;;;4984520;28;20054;-57
2021/05/27 05:00:12;;;;;;;1.55;1.20;;;;;;;;;;4985538;28;20034;-57
2021/05/27 05:02:38;;;;;;;3.30;1.55;;;;;;;;;;5017501;28;20113;-57
2021/05/27 05:05:07;;;;;;;1.95;1.30;;;;;;;;;;4985091;28;20092;-59
2021/05/27 05:07:33;;;;;;;1.40;1.08;;;;;;;;;;4984832;28;20034;-58
2021/05/27 05:09:59;;;;;;;2.05;1.50;;;;;;;;;;4985498;28;20477;-60
2021/05/27 05:12:25;;;;;;;1.63;1.10;;;;;;;;;;4982950;28;20468;-59
2021/05/27 05:14:50;;;;;;;1.20;1.10;;;;;;;;;;5000708;28;20037;-59
2021/05/27 05:17:16;;;;;;;2.38;1.40;;;;;;;;;;4981896;28;20023;-58
2021/05/27 05:19:42;;;;;;;1.42;1.33;;;;;;;;;;4982391;28;20041;-58
2021/05/27 05:22:09;;;;;;;3.00;1.40;;;;;;;;;;4985745;28;20029;-59
2021/05/27 05:24:36;;;;;;;2.72;1.35;;;;;;;;;;4982219;28;20034;-59
2021/05/27 05:27:02;;;;;;;3.22;1.60;;;;;;;;;;4984138;28;20109;-59
2021/05/27 05:29:28;;;;;;;1.83;1.48;;;;;;;;;;4980890;28;20105;-59
2021/05/27 05:31:54;;;;;;;1.75;1.35;;;;;;;;;;4985719;28;20441;-58
2021/05/27 05:34:20;;;;;;;1.30;1.10;;;;;;;;;;4983858;28;20038;-58
2021/05/27 05:36:46;;;;;;;1.80;1.42;;;;;;;;;;4983290;28;20500;-59
2021/05/27 05:39:11;;;;;;;2.08;1.48;;;;;;;;;;5014299;28;20026;-59
2021/05/27 05:41:38;;;;;;;1.90;1.38;;;;;;;;;;4973244;28;20441;-60
2021/05/27 05:44:05;;;;;;;2.97;1.20;;;;;;;;;;4998242;28;20031;-58
2021/05/27 05:46:31;;;;;;;2.10;1.70;;;;;;;;;;4983066;28;20030;-59
2021/05/27 05:48:59;;;;;;;2.65;1.65;;;;;;;;;;4984725;28;20022;-59
2021/05/27 05:51:27;;;;;;;1.48;1.35;;;;;;;;;;4983847;28;20640;-59
2021/05/27 05:53:53;;;;;;;1.40;1.30;;;;;;;;;;4984740;28;20073;-59
2021/05/27 05:56:19;;;;;;;3.45;1.88;;;;;;;;;;4981987;28;20037;-59
2021/05/27 05:58:45;;;;;;;3.63;1.77;;;;;;;;;;4979066;28;20382;-59
2021/05/27 06:01:11;;;;;;;3.88;1.55;;;;;;;;;;4987931;28;20032;-59
2021/05/27 06:03:36;;;;;;;2.83;1.75;;;;;;;;;;4986122;28;20033;-59
2021/05/27 06:06:02;;;;;;;1.90;1.60;;;;;;;;;;5012963;28;20030;-59
2021/05/27 06:08:28;;;;;;;2.42;1.65;;;;;;;;;;5016982;28;20432;-59
2021/05/27 06:10:54;;;;;;;4.07;1.92;;;;;;;;;;5001129;28;20026;-59
2021/05/27 06:13:21;;;;;;;4.00;1.60;;;;;;;;;;4988253;28;20027;-59
2021/05/27 06:15:49;;;;;;;1.88;1.77;;;;;;;;;;4983294;28;20101;-59
2021/05/27 06:18:16;;;;;;;1.65;1.38;;;;;;;;;;5014405;28;20057;-59
2021/05/27 06:20:42;;;;;;;2.58;1.70;;;;;;;;;;4981381;28;20027;-59
2021/05/27 06:23:08;;;;;;;1.83;1.73;;;;;;;;;;4985440;28;20033;-59
2021/05/27 06:25:34;;;;;;;1.58;1.40;;;;;;;;;;4995938;28;20033;-59
2021/05/27 06:27:59;;;;;;;2.40;1.48;;;;;;;;;;4987767;28;20026;-59
2021/05/27 06:30:28;;;;;;;3.35;1.67;;;;;;;;;;5014683;28;20206;-59
2021/05/27 06:32:55;;;;;;;4.60;2.00;;;;;;;;;;4989363;28;20037;-60
2021/05/27 06:35:21;;;;;;;3.05;1.80;;;;;;;;;;5005447;28;20089;-59
2021/05/27 06:37:47;;;;;;;2.17;1.58;;;;;;;;;;5019076;28;20030;-59
2021/05/27 06:40:17;;;;;;;2.13;1.80;;;;;;;;;;4989639;28;20057;-59
2021/05/27 06:42:43;;;;;;;2.55;1.55;;;;;;;;;;4988513;28;20030;-59
2021/05/27 06:45:10;;;;;;;1.60;1.42;;;;;;;;;;4992073;28;20379;-59
2021/05/27 06:47:36;;;;;;;2.13;1.38;;;;;;;;;;5018443;28;20504;-59
2021/05/27 06:50:02;;;;;;;1.70;1.40;;;;;;;;;;4990647;28;20136;-59
2021/05/27 06:52:27;;;;;;;1.90;1.60;;;;;;;;;;4989628;28;20491;-59
2021/05/27 06:54:53;;;;;;;2.00;1.52;;;;;;;;;;4990385;28;20038;-59
2021/05/27 06:57:19;;;;;;;3.38;1.45;;;;;;;;;;5020769;28;20030;-59
2021/05/27 06:59:45;;;;;;;2.05;1.70;;;;;;;;;;4988551;28;20169;-59
2021/05/27 07:02:10;;;;;;;1.63;1.42;;;;;;;;;;5020354;28;20514;-59
2021/05/27 07:04:36;;;;;;;1.95;1.65;;;;;;;;;;4990575;28;20088;-60
2021/05/27 07:07:02;;;;;;;1.77;1.63;;;;;;;;;;4986538;28;20034;-58
2021/05/27 07:09:27;;;;;;;2.13;1.52;;;;;;;;;;4988210;28;20110;-59
2021/05/27 07:11:53;;;;;;;2.17;1.30;;;;;;;;;;5017848;28;20027;-59
2021/05/27 07:14:18;;;;;;;1.55;1.45;;;;;;;;;;4989238;28;20488;-59
2021/05/27 07:16:44;;;;;;;3.72;1.50;;;;;;;;;;4989756;28;20076;-60
2021/05/27 07:19:10;;;;;;;1.63;1.48;;;;;;;;;;5019753;28;20080;-59
2021/05/27 07:21:35;;;;;;;1.75;1.65;;;;;;;;;;4989442;28;20295;-59
2021/05/27 07:24:01;;;;;;;1.63;1.45;;;;;;;;;;5003626;28;20037;-59
2021/05/27 07:26:27;;;;;;;2.72;1.40;;;;;;;;;;4989686;28;20110;-59
2021/05/27 07:28:53;;;;;;;2.55;1.30;;;;;;;;;;4987820;28;20520;-59
2021/05/27 07:31:18;;;;;;;1.67;1.52;;;;;;;;;;4985636;28;20178;-59
2021/05/27 07:33:44;;;;;;;1.58;1.40;;;;;;;;;;4987334;28;20559;-59
2021/05/27 07:36:10;;;;;;;2.95;1.27;;;;;;;;;;4985562;28;20022;-59
2021/05/27 07:38:36;;;;;;;2.95;1.40;;;;;;;;;;4987134;28;20042;-59
2021/05/27 07:41:01;;;;;;;1.45;1.30;;;;;;;;;;4989476;28;20025;-59
2021/05/27 07:43:27;;;;;;;3.70;1.40;;;;;;;;;;4986560;28;20033;-59
2021/05/27 07:45:53;;;;;;;1.98;0.95;;;;;;;;;;5004292;28;20501;-59
2021/05/27 07:48:18;;;;;;;1.42;1.33;;;;;;;;;;4985080;28;20030;-59
2021/05/27 07:50:44;;;;;;;2.30;1.30;;;;;;;;;;4988319;28;20125;-59
2021/05/27 07:53:15;;;;;;;1.33;1.23;;;;;;;;;;5003356;28;20058;-57
2021/05/27 07:55:41;;;;;;;4.13;1.27;;;;;;;;;;4992183;28;20026;-59
2021/05/27 07:58:06;;;;;;;4.63;1.40;;;;;;;;;;4985494;28;20033;-60
2021/05/27 08:00:32;;;;;;;1.67;1.10;;;;;;;;;;4986918;28;20029;-58
2021/05/27 08:02:58;;;;;;;2.20;1.23;;;;;;;;;;4987432;28;20061;-60
2021/05/27 08:05:24;;;;;;;1.65;1.23;;;;;;;;;;4987893;28;20029;-60
2021/05/27 08:07:50;;;;;;;2.45;1.10;;;;;;;;;;4986382;28;20109;-59
2021/05/27 08:10:16;;;;;;;1.77;1.30;;;;;;;;;;5001924;28;20034;-62
2021/05/27 08:12:42;;;;;;;2.00;1.40;;;;;;;;;;4986611;28;20026;-60
2021/05/27 08:15:09;;;;;;;1.52;1.00;;;;;;;;;;4984807;28;20202;-60
2021/05/27 08:17:35;;;;;;;2.33;1.10;;;;;;;;;;5018516;28;20176;-60
2021/05/27 08:20:02;;;;;;;1.70;1.00;;;;;;;;;;4981448;28;20026;-59
2021/05/27 08:22:28;;;;;;;1.55;1.27;;;;;;;;;;4981834;28;20071;-57
2021/05/27 08:24:54;;;;;;;3.67;1.10;;;;;;;;;;4989118;28;20493;-60
2021/05/27 08:27:20;;;;;;;6.78;1.40;;;;;;;;;;4984716;28;20107;-58
2021/05/27 08:29:46;;;;;;;3.00;1.05;;;;;;;;;;4985135;28;20037;-57
2021/05/27 08:32:12;;;;;;;1.48;1.20;;;;;;;;;;4981859;28;20027;-58
2021/05/27 08:34:39;;;;;;;1.65;1.13;;;;;;;;;;4985945;28;20033;-58
2021/05/27 08:37:04;;;;;;;2.42;1.02;;;;;;;;;;4984492;28;20516;-57
2021/05/27 08:39:30;;;;;;;3.30;1.35;;;;;;;;;;4985982;28;20113;-58
2021/05/27 08:41:57;;;;;;;1.10;1.00;;;;;;;;;;4987115;28;20029;-58
2021/05/27 08:44:23;;;;;;;1.45;0.90;;;;;;;;;;4986926;28;20027;-57
2021/05/27 08:46:49;;;;;;;1.00;1.00;;;;;;;;;;5016687;28;20184;-58
2021/05/27 08:49:16;;;;;;;3.20;1.20;;;;;;;;;;4986741;28;20042;-58
2021/05/27 08:51:43;;;;;;;2.05;1.38;;;;;;;;;;4985650;28;20065;-57
2021/05/27 08:54:08;;;;;;;2.05;1.65;;;;;;;;;;4985153;28;20037;-58
2021/05/27 08:56:35;;;;;;;1.70;1.60;;;;;;;;;;4982974;28;20307;-58
2021/05/27 08:59:01;;;;;;;4.28;1.60;;;;;;;;;;4985982;28;20493;-58
2021/05/27 09:01:27;;;;;;;2.75;1.50;;;;;;;;;;4968595;28;20429;-58
2021/05/27 09:03:56;;;;;;;1.20;1.10;;;;;;;;;;4987652;28;20072;-58
2021/05/27 09:06:25;;;;;;;1.80;1.48;;;;;;;;;;4986332;28;20032;-58
2021/05/27 09:09:05;;;;;;;2.25;1.70;;;;;;;;;;4982826;28;20033;-58
2021/05/27 09:11:38;;;;;;;2.53;1.67;;;;;;;;;;4969754;28;20034;-57
2021/05/27 09:14:04;;;;;;;1.73;1.63;;;;;;;;;;5015081;28;20454;-58
2021/05/27 09:16:30;;;;;;;1.88;1.70;;;;;;;;;;4983359;28;20125;-59
2021/05/27 09:19:30;;;;;;;5.75;1.65;;;;;;;;;;4985220;28;20030;-58
2021/05/27 09:21:57;;;;;;;1.83;1.58;;;;;;;;;;5001137;28;20532;-59
2021/05/27 09:24:45;;;;;;;2.50;1.60;;;;;;;;;;5014204;28;20116;-58
2021/05/27 09:27:11;;;;;;;4.05;1.05;;;;;;;;;;4982726;28;20270;-59
2021/05/27 09:29:50;;;;;;;1.10;1.00;;;;;;;;;;4985511;28;20401;-59
2021/05/27 09:32:15;;;;;;;1.90;1.27;;;;;;;;;;4986038;28;20113;-59
2021/05/27 09:34:51;;;;;;;1.77;1.10;;;;;;;;;;4985734;28;20118;-59
2021/05/27 09:37:32;;;;;;;1.48;1.20;;;;;;;;;;4997146;28;20022;-59
2021/05/27 09:39:59;;;;;;;3.05;1.92;;;;;;;;;;4983667;28;20057;-59
2021/05/27 09:42:26;;;;;;;2.22;2.00;;;;;;;;;;4982075;28;20038;-60
2021/05/27 09:44:52;;;;;;;4.00;2.10;;;;;;;;;;4984202;28;20117;-59
2021/05/27 09:47:34;;;;;;;5.22;1.70;;;;;;;;;;4982072;28;20449;-59
2021/05/27 09:50:04;;;;;;;2.90;1.77;;;;;;;;;;5000706;28;20116;-60
2021/05/27 09:52:47;;;;;;;2.85;2.00;;;;;;;;;;4986085;28;20089;-60
2021/05/27 09:55:17;;;;;;;1.70;1.60;;;;;;;;;;4985223;28;20098;-60
2021/05/27 09:57:44;;;;;;;1.95;1.80;;;;;;;;;;4965181;28;20413;-60
2021/05/27 10:00:22;;;;;;;1.95;1.80;;;;;;;;;;4977506;28;20034;-60
2021/05/27 10:02:49;;;;;;;2.95;2.03;;;;;;;;;;4983722;28;20359;-60
2021/05/27 10:05:14;;;;;;;1.92;1.52;;;;;;;;;;4985137;28;20038;-59
2021/05/27 10:07:51;;;;;;;2.47;1.50;;;;;;;;;;4978565;28;20022;-60
2021/05/27 10:10:22;;;;;;;2.58;1.55;;;;;;;;;;4984211;28;20037;-60
2021/05/27 10:12:51;;;;;;;1.85;1.75;;;;;;;;;;5012280;28;20551;-60
2021/05/27 10:15:18;;;;;;;1.63;1.40;;;;;;;;;;4985449;28;20034;-60
2021/05/27 10:17:47;;;;;;;1.60;1.50;;;;;;;;;;4984094;28;20022;-59
2021/05/27 10:20:15;;;;;;;1.70;1.60;;;;;;;;;;4981710;28;20062;-59
2021/05/27 10:22:43;;;;;;;1.60;1.25;;;;;;;;;;4984095;28;20438;-60
2021/05/27 10:25:12;;;;;;;1.40;1.30;;;;;;;;;;4982611;28;20039;-60
2021/05/27 10:27:40;;;;;;;3.47;1.60;;;;;;;;;;4984008;28;20019;-57
2021/05/27 10:30:07;;;;;;;1.88;1.35;;;;;;;;;;4982744;28;20462;-59
2021/05/27 10:32:41;;;;;;;2.15;1.60;;;;;;;;;;4984960;28;20404;-61
2021/05/27 10:35:07;;;;;;;2.95;1.42;;;;;;;;;;4983551;28;20031;-61
2021/05/27 10:37:33;;;;;;;2.22;0.98;;;;;;;;;;5014019;28;20114;-61
2021/05/27 10:39:58;;;;;;;2.08;1.10;;;;;;;;;;4983972;28;20109;-61
2021/05/27 10:42:56;;;;;;;2.78;1.30;;;;;;;;;;5014953;28;20397;-61
2021/05/27 10:45:33;;;;;;;1.92;0.80;;;;;;;;;;4999098;28;20030;-60
2021/05/27 10:48:11;;;;;;;10.38;3.05;;;;;;;;;;4982766;28;20034;-60
2021/05/27 10:50:57;;;;;;;2.92;1.60;;;;;;;;;;4985044;28;20110;-56
2021/05/27 10:56:02;;;;;;;5.57;1.30;;;;;;;;;;4983190;28;20038;-59
2021/05/27 10:58:49;;;;;;;2.05;1.33;;;;;;;;;;4982485;28;20455;-59
2021/05/27 11:01:35;;;;;;;1.60;0.93;;;;;;;;;;4982121;28;20622;-59
2021/05/27 11:04:40;;;;;;;1.42;0.95;;;;;;;;;;4983373;28;20341;-59
2021/05/27 11:07:20;;;;;;;1.42;1.30;;;;;;;;;;4982208;28;20034;-59
2021/05/27 11:09:48;;;;;;;3.88;1.55;;;;;;;;;;4983570;28;20030;-59
2021/05/27 11:12:16;;;;;;;4.60;1.40;;;;;;;;;;5014989;28;20030;-59
2021/05/27 11:15:02;;;;;;;2.35;2.03;;;;;;;;;;4987262;28;20776;-58
2021/05/27 11:17:29;;;;;;;2.85;2.08;;;;;;;;;;4987350;28;20042;-58
2021/05/27 11:20:02;;;;;;;1.33;1.20;;;;;;;;;;4985107;28;20477;-59
2021/05/27 11:22:32;;;;;;;1.70;0.80;;;;;;;;;;4988074;28;20033;-59
2021/05/27 11:25:16;;;;;;;2.85;1.15;;;;;;;;;;4985691;28;20481;-59
2021/05/27 11:27:53;;;;;;;1.88;1.20;;;;;;;;;;4984626;28;20548;-58
2021/05/27 11:30:38;;;;;;;1.65;1.23;;;;;;;;;;4983265;28;20041;-58
2021/05/27 11:33:15;;;;;;;1.73;1.30;;;;;;;;;;5000995;28;20477;-58
2021/05/27 11:35:43;;;;;;;1.23;0.82;;;;;;;;;;4989696;28;20026;-58
2021/05/27 11:38:17;;;;;;;1.52;1.30;;;;;;;;;;4985350;28;20448;-58
2021/05/27 11:40:47;;;;;;;3.28;1.20;;;;;;;;;;4988417;28;20143;-59
2021/05/27 11:43:14;;;;;;;3.58;1.48;;;;;;;;;;5015532;28;20408;-59
2021/05/27 11:45:50;;;;;;;6.32;1.38;;;;;;;;;;4985544;28;20118;-58
2021/05/27 11:48:38;;;;;;;2.65;1.38;;;;;;;;;;4989359;28;20113;-58
2021/05/27 11:51:10;;;;;;;2.28;1.35;;;;;;;;;;4985514;28;20089;-58
2021/05/27 11:53:53;;;;;;;3.70;1.30;;;;;;;;;;4985657;28;20045;-58
2021/05/27 11:56:31;;;;;;;2.42;1.50;;;;;;;;;;4986809;28;20408;-58
2021/05/27 11:58:57;;;;;;;2.00;1.20;;;;;;;;;;4982508;28;20089;-58
2021/05/27 12:01:28;;;;;;;9.35;2.90;;;;;;;;;;4984780;28;20045;-57
2021/05/27 12:04:18;;;;;;;9.00;3.13;;;;;;;;;;4986324;28;20543;-57
2021/05/27 12:06:56;;;;;;;8.38;2.65;;;;;;;;;;4985828;28;20096;-57
2021/05/27 12:09:40;;;;;;;3.67;2.20;;;;;;;;;;4986237;28;20031;-56
2021/05/27 12:12:19;;;;;;;3.92;2.10;;;;;;;;;;4998315;28;20392;-57
2021/05/27 12:14:52;;;;;;;4.28;2.00;;;;;;;;;;4988587;28;20030;-55
2021/05/27 12:17:26;;;;;;;3.67;1.73;;;;;;;;;;4986989;28;20042;-57
2021/05/27 12:19:55;;;;;;;2.53;1.70;;;;;;;;;;4986706;28;20026;-57
2021/05/27 12:22:21;;;;;;;3.00;1.73;;;;;;;;;;4986228;28;20034;-58
2021/05/27 12:25:03;;;;;;;2.72;1.30;;;;;;;;;;4985440;28;20284;-58
2021/05/27 12:27:50;;;;;;;3.58;1.45;;;;;;;;;;4987361;28;20034;-58
2021/05/27 12:30:25;;;;;;;2.15;1.17;;;;;;;;;;5000138;28;20030;-58
2021/05/27 12:32:55;;;;;;;2.60;1.38;;;;;;;;;;5017070;28;20090;-58
2021/05/27 12:35:25;;;;;;;5.28;1.20;;;;;;;;;;4985592;28;20030;-58
2021/05/27 12:37:55;;;;;;;2.75;1.00;;;;;;;;;;4982538;28;20037;-58
2021/05/27 12:40:26;;;;;;;;;;;;;;;;;;4985011;28;20665;-57
2021/05/27 12:42:57;;;;;;;3.75;1.30;;;;;;;;;;4983176;28;19917;-58
2021/05/27 12:45:38;;;;;;;0.80;0.80;;;;;;;;;;4983679;28;20050;-56
2021/05/27 12:48:10;;;;;;;2.95;0.85;;;;;;;;;;4984683;28;20048;-58
2021/05/27 12:50:38;;;;;;;2.70;1.10;;;;;;;;;;5013034;28;20757;-56
2021/05/27 12:53:06;;;;;;;2.80;0.90;;;;;;;;;;4985596;28;20070;-58
2021/05/27 12:55:34;;;;;;;4.03;1.05;;;;;;;;;;4984718;28;20036;-57
2021/05/27 12:58:03;;;;;;;2.33;1.00;;;;;;;;;;4983058;28;20036;-57
2021/05/27 13:00:47;;;;;;;1.73;1.10;;;;;;;;;;4998909;28;20040;-58
2021/05/27 13:03:13;;;;;;;2.70;0.90;;;;;;;;;;5000170;28;20038;-57
2021/05/27 13:05:39;;;;;;;3.60;1.30;;;;;;;;;;4986075;28;20378;-58
2021/05/27 13:08:05;;;;;;;2.40;1.02;;;;;;;;;;4979097;28;20049;-58
2021/05/27 13:10:39;;;;;;;2.42;1.20;;;;;;;;;;4983579;28;20441;-57
2021/05/27 13:13:07;;;;;;;5.60;1.00;;;;;;;;;;4984513;28;20058;-60
2021/05/27 13:15:49;;;;;;;0.80;0.80;;;;;;;;;;4988281;28;20026;-59
2021/05/27 13:18:16;;;;;;;2.00;0.90;;;;;;;;;;4982034;28;20061;-61
2021/05/27 13:21:04;;;;;;;2.53;0.90;;;;;;;;;;4984660;28;20172;-60
2021/05/27 13:23:34;;;;;;;1.70;0.90;;;;;;;;;;4983557;28;20352;-61
2021/05/27 13:26:08;;;;;;;2.15;1.25;;;;;;;;;;4984580;28;20079;-60
2021/05/27 13:28:34;;;;;;;2.53;0.90;;;;;;;;;;4985653;28;20030;-61
2021/05/27 13:31:00;;;;;;;2.90;1.50;;;;;;;;;;4983519;28;20026;-61
2021/05/27 13:33:26;;;;;;;0.80;0.80;;;;;;;;;;4985893;28;20045;-61
2021/05/27 13:35:57;;;;;;;1.45;0.80;;;;;;;;;;4981958;28;20057;-60
2021/05/27 13:38:26;;;;;;;2.15;1.20;;;;;;;;;;4985782;28;20482;-60
2021/05/27 13:40:52;;;;;;;1.93;1.30;;;;;;;;;;4987435;28;20034;-61
2021/05/27 13:43:23;;;;;;;1.40;1.30;;;;;;;;;;4999844;28;20105;-61
2021/05/27 13:45:49;;;;;;;2.38;1.40;;;;;;;;;;4980213;28;20440;-61
2021/05/27 13:48:15;;;;;;;2.83;1.58;;;;;;;;;;5013730;28;20121;-61
2021/05/27 13:50:44;;;;;;;1.20;1.10;;;;;;;;;;4982847;28;20116;-60
2021/05/27 13:53:11;;;;;;;3.10;1.60;;;;;;;;;;4983015;28;20034;-60
2021/05/27 13:55:50;;;;;;;1.40;1.30;;;;;;;;;;4967650;28;20034;-58
2021/05/27 13:58:16;;;;;;;2.25;1.27;;;;;;;;;;4982213;28;20069;-60
2021/05/27 14:00:42;;;;;;;5.07;1.10;;;;;;;;;;4982809;28;20034;-59
2021/05/27 14:03:08;;;;;;;2.22;1.20;;;;;;;;;;4981827;28;20032;-59
2021/05/27 14:05:34;;;;;;;3.63;1.40;;;;;;;;;;4983415;28;20093;-58
2021/05/27 14:08:00;;;;;;;1.85;1.40;;;;;;;;;;4984323;28;20030;-58
2021/05/27 14:10:26;;;;;;;1.60;1.42;;;;;;;;;;4983130;28;20102;-57
2021/05/27 14:12:51;;;;;;;1.35;1.25;;;;;;;;;;4984113;28;20026;-58
2021/05/27 14:15:18;;;;;;;1.35;1.25;;;;;;;;;;4982438;28;20105;-58
2021/05/27 14:17:44;;;;;;;2.22;1.30;;;;;;;;;;4986356;28;20121;-57
2021/05/27 14:20:10;;;;;;;2.45;1.35;;;;;;;;;;4983298;28;20037;-57
2021/05/27 14:22:37;;;;;;;0.98;0.85;;;;;;;;;;4998490;28;20322;-58
2021/05/27 14:25:07;;;;;;;2.15;1.10;;;;;;;;;;5000100;28;20046;-57
2021/05/27 14:27:33;;;;;;;1.30;1.10;;;;;;;;;;4984692;28;20037;-58
2021/05/27 14:29:59;;;;;;;2.75;1.27;;;;;;;;;;5015218;28;20061;-58
2021/05/27 14:32:26;;;;;;;2.03;0.93;;;;;;;;;;4985259;28;20105;-57
2021/05/27 14:34:51;;;;;;;1.40;1.00;;;;;;;;;;4979915;28;20038;-57
2021/05/27 14:37:17;;;;;;;1.77;1.08;;;;;;;;;;4985245;28;20442;-57
2021/05/27 14:39:43;;;;;;;1.77;1.13;;;;;;;;;;4983646;28;20030;-57
2021/05/27 14:42:10;;;;;;;1.33;1.10;;;;;;;;;;4984620;28;20031;-57
2021/05/27 14:44:36;;;;;;;5.75;1.15;;;;;;;;;;4978775;28;20026;-57
2021/05/27 14:47:02;;;;;;;1.45;1.35;;;;;;;;;;5004401;28;20041;-58
2021/05/27 14:49:28;;;;;;;2.55;1.30;;;;;;;;;;4987994;28;21103;-58
2021/05/27 14:51:54;;;;;;;2.03;1.27;;;;;;;;;;4988886;28;20022;-58
2021/05/27 14:54:21;;;;;;;2.25;1.20;;;;;;;;;;5004772;28;20037;-59
2021/05/27 14:56:47;;;;;;;1.92;1.45;;;;;;;;;;4999245;28;20038;-58
2021/05/27 14:59:14;;;;;;;1.70;1.00;;;;;;;;;;4987622;28;20489;-59